Time;durP1;ratioP1;P1;durP2;ratioP2;P2;SDS_P1;SDS_P2;PMS_P1;PMS_P2;Temp;Humidity;BMP_temperature;BMP_pressure;BME280_temperature;BME280_humidity;BME280_pressure;Samples;Min_cycle;Max_cycle;Signal;HPM_P1;HPM_P2
2023/08/23 00:05:08;;;;;;;5.95;3.90;;;;;;;24.65;61.41;99462.19;7380113;39;20236;31
2023/08/23 00:10:28;;;;;;;8.48;4.12;;;;;;;24.61;60.33;99467.37;7304355;39;20252;31
2023/08/23 00:16:03;;;;;;;8.70;4.20;;;;;;;24.39;61.46;99471.12;7279232;40;20249;31
2023/08/23 00:21:37;;;;;;;6.18;4.30;;;;;;;24.11;61.83;99461.78;7271789;40;20234;31
2023/08/23 00:26:58;;;;;;;5.95;4.18;;;;;;;24.02;63.06;99462.44;7282333;40;20237;31
2023/08/23 00:32:18;;;;;;;5.50;3.90;;;;;;;23.95;62.62;99462.59;7300962;39;20252;31
2023/08/23 00:37:53;;;;;;;6.00;4.30;;;;;;;23.93;63.00;99458.41;7332700;39;21874;31
2023/08/23 00:43:14;;;;;;;7.65;4.00;;;;;;;23.92;63.46;99457.56;7307847;39;20230;31
2023/08/23 00:48:49;;;;;;;6.60;4.60;;;;;;;23.77;64.59;99460.03;7320029;39;20417;31
2023/08/23 00:59:26;;;;;;;8.77;4.80;;;;;;;23.61;63.79;99453.38;7268000;39;21208;31
2023/08/23 01:10:05;;;;;;;6.80;4.62;;;;;;;23.54;64.09;99460.13;7340695;39;20281;31
2023/08/23 01:20:42;;;;;;;5.20;4.20;;;;;;;23.59;63.45;99451.97;7378578;39;21189;31
2023/08/23 01:26:19;;;;;;;5.30;4.20;;;;;;;23.56;64.81;99452.47;7335729;39;20347;31
2023/08/23 01:31:54;;;;;;;4.90;4.10;;;;;;;23.47;64.81;99453.94;7324727;39;20251;31
2023/08/23 01:37:29;;;;;;;5.85;4.10;;;;;;;23.42;63.59;99446.38;7317601;39;20425;31
2023/08/23 01:43:05;;;;;;;5.10;4.14;;;;;;;23.41;64.42;99454.88;7275110;40;20504;31
2023/08/23 01:48:26;;;;;;;6.40;4.20;;;;;;;23.42;64.32;99451.87;7244974;40;20256;31
2023/08/23 01:54:01;;;;;;;7.93;4.30;;;;;;;23.50;62.78;99447.94;7247469;40;20261;31
2023/08/23 01:59:36;;;;;;;7.02;3.96;;;;;;;23.45;62.96;99445.91;7235546;40;20431;31
2023/08/23 02:05:12;;;;;;;8.98;4.82;;;;;;;23.45;63.05;99445.91;7245178;40;20253;31
2023/08/23 02:10:47;;;;;;;5.80;4.55;;;;;;;23.45;62.49;99453.31;7253978;40;20246;31
2023/08/23 02:16:20;;;;;;;5.70;4.47;;;;;;;23.35;63.20;99465.75;7210952;40;20637;31
2023/08/23 02:26:41;;;;;;;7.60;4.57;;;;;;;23.36;63.08;99459.19;7251549;40;20834;31
2023/08/23 02:32:17;;;;;;;11.60;5.15;;;;;;;23.37;63.19;99446.28;7278229;39;20244;31
2023/08/23 02:37:53;;;;;;;7.75;4.55;;;;;;;23.42;62.49;99442.78;7333062;39;20416;31
2023/08/23 02:43:27;;;;;;;5.72;4.07;;;;;;;23.34;62.91;99444.81;7252215;40;20276;31
2023/08/23 02:49:03;;;;;;;6.00;4.30;;;;;;;23.21;64.16;99453.34;7263201;40;20245;31
2023/08/23 02:54:38;;;;;;;8.32;4.87;;;;;;;22.96;64.96;99451.94;7237581;40;20440;31
2023/08/23 02:59:58;;;;;;;6.78;4.47;;;;;;;22.81;64.91;99455.22;7271212;39;20292;31
2023/08/23 03:10:36;;;;;;;7.03;4.43;;;;;;;22.52;65.36;99442.34;7310161;39;21132;31
2023/08/23 03:16:08;;;;;;;6.18;4.94;;;;;;;22.49;65.61;99446.44;7317554;39;20260;31
2023/08/23 03:21:43;;;;;;;7.85;4.95;;;;;;;22.37;66.26;99438.19;7377662;39;20248;31
2023/08/23 03:27:20;;;;;;;8.57;5.10;;;;;;;22.20;66.86;99426.22;7359562;39;20247;31
2023/08/23 03:32:37;;;;;;;8.27;5.18;;;;;;;22.22;66.84;99439.69;7268529;40;20382;31
2023/08/23 03:38:09;;;;;;;7.78;5.30;;;;;;;22.32;66.72;99435.31;7105058;39;20243;31
2023/08/23 03:43:45;;;;;;;6.90;5.15;;;;;;;22.27;66.79;99423.34;7284842;39;20268;31
2023/08/23 03:49:05;;;;;;;8.38;5.47;;;;;;;22.19;66.41;99420.97;7299613;39;20248;31
2023/08/23 03:54:40;;;;;;;9.50;6.25;;;;;;;22.21;67.14;99429.78;7322088;39;20251;31
2023/08/23 04:00:16;;;;;;;7.25;5.68;;;;;;;22.00;67.75;99432.00;7263676;40;20256;31
2023/08/23 04:05:54;;;;;;;6.30;5.03;;;;;;;21.93;67.89;99434.03;7292806;39;20243;31
2023/08/23 04:11:14;;;;;;;7.93;5.47;;;;;;;21.86;67.86;99436.00;7288143;39;20258;31
2023/08/23 04:16:47;;;;;;;5.87;5.10;;;;;;;21.73;68.91;99436.19;7313109;39;20350;31
2023/08/23 04:27:23;;;;;;;7.78;5.15;;;;;;;21.56;68.18;99430.50;7302227;39;21393;31
2023/08/23 04:32:58;;;;;;;7.45;6.18;;;;;;;21.41;69.38;99437.50;7290991;39;20264;31
2023/08/23 04:38:18;;;;;;;6.63;6.03;;;;;;;21.42;69.48;99436.41;7300821;39;20244;31
2023/08/23 04:43:53;;;;;;;6.12;5.32;;;;;;;21.29;70.76;99428.34;7313167;39;20310;31
2023/08/23 04:49:26;;;;;;;7.78;5.75;;;;;;;21.39;70.08;99434.97;7258988;40;20376;31
2023/08/23 04:54:43;;;;;;;6.10;5.15;;;;;;;21.38;69.75;99438.78;7256400;40;20245;31
2023/08/23 05:00:18;;;;;;;6.95;5.72;;;;;;;21.29;70.64;99429.19;7305011;39;20260;31
2023/08/23 05:05:54;;;;;;;10.20;5.78;;;;;;;21.19;71.60;99428.91;7301415;39;21182;31
2023/08/23 05:11:11;;;;;;;7.60;5.97;;;;;;;21.11;71.83;99434.63;7297657;39;20311;31
2023/08/23 05:16:31;;;;;;;7.82;5.87;;;;;;;21.07;71.47;99437.00;7295622;39;20521;31
2023/08/23 05:22:04;;;;;;;8.07;5.93;;;;;;;21.08;71.68;99448.81;7295064;39;20255;31
2023/08/23 05:27:24;;;;;;;8.23;5.83;;;;;;;21.14;71.63;99442.47;7269734;40;20284;31
2023/08/23 05:32:44;;;;;;;9.90;5.80;;;;;;;21.15;72.12;99451.53;7339408;39;20258;31
2023/08/23 05:38:15;;;;;;;7.40;5.40;;;;;;;21.30;72.19;99458.28;7294336;40;20259;31
2023/08/23 05:48:39;;;;;;;7.80;5.80;;;;;;;21.54;70.48;99462.81;7300550;39;20634;31
2023/08/23 05:54:15;;;;;;;7.40;6.07;;;;;;;21.56;71.56;99460.69;7277155;39;20260;31
2023/08/23 05:59:33;;;;;;;7.12;5.32;;;;;;;21.64;70.79;99459.53;7307783;39;21246;31
2023/08/23 06:04:52;;;;;;;9.80;6.05;;;;;;;21.78;70.41;99462.94;7376783;39;20236;31
2023/08/23 06:10:28;;;;;;;6.10;5.40;;;;;;;21.97;70.24;99453.63;7369524;39;20373;31
2023/08/23 06:15:45;;;;;;;8.65;5.20;;;;;;;22.19;69.22;99459.41;7277064;40;20284;31
2023/08/23 06:21:05;;;;;;;7.03;4.90;;;;;;;22.42;68.52;99454.78;7306258;39;20317;31
2023/08/23 06:26:38;;;;;;;6.50;4.70;;;;;;;22.54;68.23;99463.03;7263487;40;20234;31
2023/08/23 06:31:59;;;;;;;6.37;4.70;;;;;;;22.80;68.42;99468.13;7293353;39;20244;31
2023/08/23 06:37:33;;;;;;;8.35;4.30;;;;;;;23.01;67.71;99472.16;7315114;39;20351;31
2023/08/23 06:43:09;;;;;;;7.37;4.82;;;;;;;23.12;66.64;99462.22;7245829;40;20254;31
2023/08/23 06:48:44;;;;;;;7.75;4.95;;;;;;;23.19;65.84;99474.78;7197425;40;20257;31
2023/08/23 06:54:05;;;;;;;8.50;5.03;;;;;;;23.34;66.07;99469.59;7238874;40;20246;31
2023/08/23 06:59:41;;;;;;;10.05;5.10;;;;;;;23.49;65.33;99482.03;7241323;40;20256;31
2023/08/23 07:05:16;;;;;;;7.90;5.20;;;;;;;23.65;65.99;99484.84;7258974;39;20267;31
2023/08/23 07:10:51;;;;;;;7.70;4.40;;;;;;;23.85;64.43;99489.94;7240411;40;20253;31
2023/08/23 07:16:28;;;;;;;7.65;5.05;;;;;;;24.00;64.50;99487.47;7274086;40;20319;31
2023/08/23 07:22:03;;;;;;;5.95;4.60;;;;;;;24.18;64.39;99491.97;7294709;40;20256;31
2023/08/23 07:27:38;;;;;;;8.25;5.40;;;;;;;24.33;64.06;99503.25;7282422;39;20515;31
2023/08/23 07:33:14;;;;;;;7.77;5.10;;;;;;;24.50;63.21;99503.28;7365467;39;20344;31
2023/08/23 07:38:46;;;;;;;9.63;5.23;;;;;;;24.70;62.77;99500.88;7275105;39;20269;31
2023/08/23 07:44:07;;;;;;;8.70;5.35;;;;;;;24.83;62.77;99508.81;7263064;39;20366;31
2023/08/23 07:49:42;;;;;;;12.60;4.80;;;;;;;24.91;62.36;99500.16;7303160;39;20244;31
2023/08/23 07:55:17;;;;;;;12.20;4.70;;;;;;;25.16;62.44;99505.19;7254041;39;20436;31
2023/08/23 08:00:52;;;;;;;5.85;4.30;;;;;;;25.51;62.64;99508.44;7263699;39;20436;31
2023/08/23 08:06:28;;;;;;;6.62;4.40;;;;;;;25.65;61.22;99506.19;7221074;40;20459;31
2023/08/23 08:11:49;;;;;;;9.50;5.10;;;;;;;25.92;60.06;99512.59;7263619;39;20315;31
2023/08/23 08:17:23;;;;;;;5.77;4.63;;;;;;;26.06;59.95;99517.72;7310694;39;20333;31
2023/08/23 08:28:01;;;;;;;8.10;4.14;;;;;;;26.29;59.01;99501.69;7324967;39;21266;31
2023/08/23 08:38:23;;;;;;;8.43;4.20;;;;;;;26.70;58.60;99513.94;7315516;39;21289;31
2023/08/23 08:49:03;;;;;;;6.67;4.00;;;;;;;27.08;57.68;99512.87;7344528;39;20267;31
2023/08/23 08:54:51;;;;;;;7.12;3.68;;;;;;;27.33;55.61;99520.53;7355627;39;20279;31
2023/08/23 09:00:25;;;;;;;6.50;3.55;;;;;;;27.54;56.96;99515.97;7316418;39;20262;31
2023/08/23 09:05:59;;;;;;;9.07;3.92;;;;;;;27.80;56.13;99512.19;7320190;39;20453;31
2023/08/23 09:11:16;;;;;;;6.70;3.40;;;;;;;27.99;53.43;99493.97;7251355;40;20277;31
2023/08/23 09:16:33;;;;;;;7.67;3.40;;;;;;;28.17;53.29;99501.00;7259172;40;20256;31
2023/08/23 09:22:09;;;;;;;8.20;3.57;;;;;;;28.09;53.94;99496.75;7294919;40;20366;31
2023/08/23 09:27:26;;;;;;;9.85;3.50;;;;;;;28.44;53.98;99496.03;7290674;39;20315;31
2023/08/23 09:32:46;;;;;;;5.60;3.30;;;;;;;28.61;52.74;99504.09;7334693;39;20439;31
2023/08/23 09:38:23;;;;;;;6.60;3.18;;;;;;;28.79;51.66;99508.25;7316265;39;20511;31
2023/08/23 09:43:55;;;;;;;4.50;3.20;;;;;;;28.86;51.57;99508.84;7225174;40;20257;31
2023/08/23 09:49:30;;;;;;;10.02;3.72;;;;;;;29.09;51.96;99497.16;7184061;40;20246;31
2023/08/23 09:55:08;;;;;;;7.63;3.30;;;;;;;29.36;52.18;99503.22;7235741;40;20265;31
2023/08/23 10:00:53;;;;;;;5.12;3.35;;;;;;;29.49;50.96;99508.19;7223212;40;20339;31
2023/08/23 10:11:30;;;;;;;4.32;3.12;;;;;;;29.71;48.95;99498.66;7272107;40;21105;31
2023/08/23 10:17:05;;;;;;;5.40;3.30;;;;;;;29.82;48.93;99486.38;7335905;39;20248;31
2023/08/23 10:27:45;;;;;;;4.45;2.90;;;;;;;30.25;48.93;99493.13;7335080;39;20338;31
2023/08/23 10:38:36;;;;;;;5.25;3.42;;;;;;;30.13;46.45;99496.25;7315147;39;21445;31
2023/08/23 10:44:09;;;;;;;6.83;3.17;;;;;;;30.41;46.94;99491.88;7063758;40;20299;31
2023/08/23 10:49:56;;;;;;;6.57;3.37;;;;;;;30.28;46.76;99486.97;7293243;40;20485;31
2023/08/23 10:55:13;;;;;;;4.40;3.00;;;;;;;30.54;46.85;99482.09;7276111;39;20273;31
2023/08/23 11:00:50;;;;;;;5.95;3.45;;;;;;;30.67;46.14;99471.09;7228753;40;20429;31
2023/08/23 11:06:18;;;;;;;5.43;2.80;;;;;;;30.58;46.62;99478.44;7229533;40;20268;31
2023/08/23 11:11:35;;;;;;;7.96;2.98;;;;;;;30.61;45.68;99475.06;7240841;40;20252;31
2023/08/23 11:17:09;;;;;;;5.06;3.10;;;;;;;30.78;45.53;99481.06;7248546;40;20241;31
2023/08/23 11:22:26;;;;;;;4.58;2.84;;;;;;;31.06;46.31;99475.81;7255535;39;20244;31
2023/08/23 11:28:01;;;;;;;5.87;3.03;;;;;;;31.34;45.77;99474.94;7261992;40;20252;31
2023/08/23 11:33:34;;;;;;;3.54;2.76;;;;;;;31.41;44.94;99461.50;7285792;39;20240;31
2023/08/23 11:38:54;;;;;;;7.87;3.20;;;;;;;31.53;44.56;99475.00;7290020;39;20376;31
2023/08/23 11:44:29;;;;;;;4.50;3.20;;;;;;;31.59;43.63;99463.53;7319257;39;20283;31
2023/08/23 11:55:04;;;;;;;5.62;2.58;;;;;;;31.59;44.46;99448.78;7313458;39;20264;31
2023/08/23 12:00:36;;;;;;;3.90;2.58;;;;;;;31.61;44.63;99455.69;7255548;40;20276;31
2023/08/23 12:05:56;;;;;;;3.50;2.85;;;;;;;31.62;43.34;99445.37;7295860;39;20367;31
2023/08/23 12:16:31;;;;;;;6.70;3.20;;;;;;;31.83;44.43;99440.34;7349373;39;21115;31
2023/08/23 12:22:04;;;;;;;4.47;2.78;;;;;;;31.93;43.21;99440.22;7306603;39;20267;31
2023/08/23 12:27:34;;;;;;;3.10;2.80;;;;;;;32.09;44.71;99436.09;7305638;39;20263;31
2023/08/23 12:33:07;;;;;;;6.30;3.00;;;;;;;32.25;44.37;99437.53;7253830;40;20245;31
2023/08/23 12:38:25;;;;;;;5.90;2.95;;;;;;;32.41;43.37;99427.78;7226056;40;22054;31
2023/08/23 12:43:57;;;;;;;6.06;2.86;;;;;;;32.48;43.65;99428.19;7248657;40;20252;31
2023/08/23 12:49:32;;;;;;;5.95;3.20;;;;;;;32.50;44.10;99436.28;7293217;39;20288;31
2023/08/23 12:55:05;;;;;;;4.63;2.80;;;;;;;32.40;41.92;99428.06;7311732;39;21349;31
2023/08/23 13:00:25;;;;;;;5.15;3.17;;;;;;;32.30;42.83;99425.44;7269522;39;20291;31
2023/08/23 13:11:01;;;;;;;4.50;2.90;;;;;;;32.39;43.78;99421.66;7305779;39;20454;31
2023/08/23 13:16:36;;;;;;;4.10;2.80;;;;;;;32.65;42.80;99422.06;7286108;39;20253;31
2023/08/23 13:27:16;;;;;;;4.70;2.90;;;;;;;32.73;43.05;99420.56;7313773;39;20369;31
2023/08/23 13:32:37;;;;;;;5.10;2.90;;;;;;;32.51;43.86;99405.28;7314769;39;20319;31
2023/08/23 13:38:08;;;;;;;8.43;3.15;;;;;;;32.49;44.49;99401.13;7348130;39;20275;31
2023/08/23 13:43:45;;;;;;;4.80;3.10;;;;;;;32.66;43.97;99404.19;7396434;39;20266;31
2023/08/23 13:49:03;;;;;;;4.07;2.97;;;;;;;32.61;43.89;99395.88;7323865;39;20236;31
2023/08/23 13:54:20;;;;;;;5.87;2.95;;;;;;;32.47;43.74;99398.63;7354788;39;20244;31
2023/08/23 13:59:55;;;;;;;6.60;2.90;;;;;;;32.35;43.40;99394.66;7341920;39;20249;31
2023/08/23 14:05:28;;;;;;;3.17;2.53;;;;;;;32.32;43.07;99398.91;7313151;39;20290;31
2023/08/23 14:16:08;;;;;;;4.12;2.80;;;;;;;32.40;44.30;99389.81;7254252;40;20261;31
2023/08/23 14:26:47;;;;;;;4.00;2.60;;;;;;;32.29;43.29;99384.72;7373042;39;20261;31
2023/08/23 14:37:28;;;;;;;5.90;2.85;;;;;;;32.34;44.19;99367.91;7358718;39;20483;31
2023/08/23 14:43:01;;;;;;;5.35;2.73;;;;;;;32.47;43.33;99364.31;7334725;39;20418;31
2023/08/23 14:53:38;;;;;;;4.10;2.58;;;;;;;32.22;42.48;99381.47;7359827;39;20279;31
2023/08/23 14:58:57;;;;;;;4.62;2.70;;;;;;;32.12;43.61;99372.16;7282261;39;20257;31
2023/08/23 15:04:15;;;;;;;4.45;2.72;;;;;;;32.16;43.48;99361.22;7270772;40;20347;31
2023/08/23 15:09:48;;;;;;;6.37;3.00;;;;;;;32.20;43.19;99365.06;7316523;39;20253;31
2023/08/23 15:15:25;;;;;;;3.95;2.80;;;;;;;32.18;43.99;99370.94;7205641;40;20264;31
2023/08/23 15:21:00;;;;;;;5.85;2.95;;;;;;;31.89;42.42;99361.91;7190509;40;20796;31
2023/08/23 15:26:33;;;;;;;5.82;3.10;;;;;;;31.93;43.74;99360.16;7231489;40;20387;31
2023/08/23 15:32:06;;;;;;;5.68;2.50;;;;;;;31.90;43.37;99363.53;7233886;40;20243;31
2023/08/23 15:37:38;;;;;;;5.50;2.88;;;;;;;31.82;43.92;99353.06;7235446;40;20360;31
2023/08/23 15:43:11;;;;;;;4.15;2.90;;;;;;;31.76;43.47;99357.09;7273420;39;20273;31
2023/08/23 15:48:28;;;;;;;4.70;2.83;;;;;;;31.80;42.85;99362.88;7273320;40;20272;31
2023/08/23 15:54:00;;;;;;;6.70;2.95;;;;;;;31.97;43.23;99343.66;7311956;39;20488;31
2023/08/23 15:59:31;;;;;;;5.72;2.67;;;;;;;31.98;41.83;99348.09;7295870;39;20531;31
2023/08/23 16:05:06;;;;;;;4.48;2.66;;;;;;;31.98;43.48;99345.31;7290464;39;20332;31
2023/08/23 16:10:23;;;;;;;4.30;3.15;;;;;;;31.89;43.09;99352.69;7252888;40;20246;31
2023/08/23 16:15:56;;;;;;;3.70;2.70;;;;;;;31.78;42.50;99343.66;7262336;40;20275;31
2023/08/23 16:21:28;;;;;;;5.20;2.88;;;;;;;31.77;43.46;99343.97;7274639;39;20248;31
2023/08/23 16:27:04;;;;;;;7.17;3.10;;;;;;;31.64;44.38;99348.31;7264442;39;20323;31
2023/08/23 16:37:44;;;;;;;3.75;2.80;;;;;;;31.38;44.57;99331.09;7241873;40;20277;31
2023/08/23 16:43:01;;;;;;;4.15;3.30;;;;;;;31.32;44.30;99323.97;7289492;39;20298;31
2023/08/23 16:48:18;;;;;;;3.10;2.57;;;;;;;31.28;44.10;99328.47;7336903;39;20348;31
2023/08/23 16:53:52;;;;;;;9.20;3.80;;;;;;;31.13;43.76;99326.69;7273161;40;20256;31
2023/08/23 16:59:23;;;;;;;6.85;3.22;;;;;;;30.94;44.49;99331.34;7276703;40;20261;31
2023/08/23 17:04:55;;;;;;;7.15;3.05;;;;;;;30.91;46.29;99322.78;7268451;40;20264;31
2023/08/23 17:10:28;;;;;;;5.30;2.90;;;;;;;30.75;45.84;99317.41;7282166;39;21466;31
2023/08/23 17:16:04;;;;;;;8.38;2.78;;;;;;;30.59;47.50;99323.41;7314701;40;20272;31
2023/08/23 17:26:41;;;;;;;5.25;3.10;;;;;;;30.45;48.14;99333.59;7245154;40;20293;31
2023/08/23 17:31:58;;;;;;;5.25;3.20;;;;;;;30.42;48.97;99332.19;7249825;39;20261;31
2023/08/23 17:37:30;;;;;;;4.70;3.30;;;;;;;30.38;49.29;99340.28;7262494;39;20286;31
2023/08/23 17:43:03;;;;;;;4.12;3.30;;;;;;;30.19;51.33;99347.69;7136260;39;20241;31
2023/08/23 17:53:39;;;;;;;3.72;3.20;;;;;;;30.01;53.07;99348.41;7318867;39;21289;31
2023/08/23 17:59:16;;;;;;;6.28;3.30;;;;;;;29.76;53.76;99348.53;7313975;39;20271;31
2023/08/23 18:04:34;;;;;;;8.36;3.62;;;;;;;29.65;55.27;99349.75;7301579;39;20245;31
2023/08/23 18:09:53;;;;;;;19.98;4.50;;;;;;;29.49;53.71;99358.16;7315945;39;20252;31
2023/08/23 18:15:24;;;;;;;11.97;3.83;;;;;;;29.22;56.49;99368.00;7259494;40;20419;31
2023/08/23 18:20:56;;;;;;;10.75;4.70;;;;;;;29.10;56.07;99365.53;7312199;39;20251;31
2023/08/23 18:26:28;;;;;;;14.00;3.90;;;;;;;28.93;55.80;99360.31;7297510;39;20449;31
2023/08/23 18:32:01;;;;;;;7.53;3.75;;;;;;;28.70;56.85;99363.69;7297882;39;20447;31
2023/08/23 18:37:33;;;;;;;7.20;3.30;;;;;;;28.60;55.53;99363.72;7228630;40;20250;31
2023/08/23 18:43:08;;;;;;;5.60;3.70;;;;;;;28.42;56.03;99370.66;7250811;39;20248;31
2023/08/23 18:48:41;;;;;;;6.07;3.70;;;;;;;28.25;54.70;99384.00;7261694;39;20470;31
2023/08/23 18:54:16;;;;;;;8.18;3.62;;;;;;;27.98;56.99;99375.06;7245050;39;20265;31
2023/08/23 18:59:49;;;;;;;6.40;3.42;;;;;;;27.86;56.08;99374.50;7229933;40;20280;31
2023/08/23 19:05:24;;;;;;;5.50;3.35;;;;;;;27.74;56.44;99381.13;7243955;40;20369;31
2023/08/23 19:15:48;;;;;;;7.50;4.00;;;;;;;27.42;57.39;99390.72;7273761;39;21286;31
2023/08/23 19:26:24;;;;;;;4.70;3.50;;;;;;;27.13;57.62;99398.59;7316932;39;20268;31
2023/08/23 19:32:10;;;;;;;9.65;4.05;;;;;;;26.95;57.99;99399.87;7300003;39;20241;31
2023/08/23 19:37:44;;;;;;;6.00;3.60;;;;;;;26.68;58.40;99401.94;7242624;40;20419;31
2023/08/23 19:43:18;;;;;;;12.65;4.40;;;;;;;26.37;59.23;99400.88;7233491;40;20526;31
2023/08/23 19:48:50;;;;;;;9.73;4.05;;;;;;;26.14;59.95;99409.47;7210516;40;20269;31
2023/08/23 19:59:26;;;;;;;6.25;3.62;;;;;;;26.02;59.56;99418.75;7217775;40;21214;31
2023/08/23 20:09:48;;;;;;;5.07;3.50;;;;;;;25.74;59.41;99399.69;7242734;40;20269;31
2023/08/23 20:15:21;;;;;;;5.47;3.00;;;;;;;25.58;60.63;99393.16;7270067;40;20284;31
2023/08/23 20:25:43;;;;;;;4.90;3.03;;;;;;;25.58;58.07;99399.78;7335504;39;20523;31
2023/08/23 20:31:18;;;;;;;5.10;3.22;;;;;;;25.58;58.77;99392.34;7374622;39;20296;31
2023/08/23 20:36:39;;;;;;;7.15;3.05;;;;;;;25.40;59.22;99396.25;7333830;39;20323;31
2023/08/23 20:41:59;;;;;;;5.62;3.05;;;;;;;25.30;58.23;99389.75;7337002;39;20252;31
2023/08/23 20:47:35;;;;;;;6.28;2.97;;;;;;;25.21;57.53;99383.03;7337594;39;20260;31
2023/08/23 20:52:55;;;;;;;5.90;2.70;;;;;;;25.17;58.05;99377.19;7322787;39;20292;31
2023/08/23 20:58:29;;;;;;;5.93;2.97;;;;;;;25.13;57.22;99376.03;7335694;39;20286;31
2023/08/23 21:04:05;;;;;;;3.87;2.90;;;;;;;25.03;58.86;99371.22;7276072;39;20237;31
2023/08/23 21:09:41;;;;;;;3.55;2.70;;;;;;;24.96;59.16;99367.00;7245216;40;20260;31
2023/08/23 21:15:16;;;;;;;5.05;2.90;;;;;;;24.93;59.24;99371.06;7237220;40;20324;31
2023/08/23 21:20:51;;;;;;;2.95;2.40;;;;;;;24.78;59.25;99361.75;7213993;40;20537;31
2023/08/23 21:26:26;;;;;;;3.77;2.60;;;;;;;24.78;58.43;99358.97;7244832;40;20243;31
2023/08/23 21:32:01;;;;;;;3.97;2.50;;;;;;;24.92;57.27;99363.91;7248034;39;20368;31
2023/08/23 21:42:39;;;;;;;4.35;2.70;;;;;;;24.82;56.73;99357.38;7303454;39;21143;31
2023/08/23 21:53:18;;;;;;;5.87;2.90;;;;;;;25.04;56.70;99356.34;7301299;39;20287;31
2023/08/23 21:58:51;;;;;;;4.50;3.20;;;;;;;25.02;57.75;99360.44;7278756;39;20341;31
2023/08/23 22:04:27;;;;;;;3.13;2.53;;;;;;;24.74;59.84;99355.06;7352342;39;20427;31
2023/08/23 22:09:47;;;;;;;7.20;2.97;;;;;;;24.56;61.07;99350.69;7279956;40;20241;31
2023/08/23 22:15:24;;;;;;;5.90;3.35;;;;;;;24.23;61.30;99357.06;7296748;39;20248;31
2023/08/23 22:20:41;;;;;;;2.82;2.56;;;;;;;24.02;61.35;99368.78;7261541;40;20435;31
2023/08/23 22:31:17;;;;;;;5.50;3.00;;;;;;;24.08;62.19;99365.91;7295698;39;21084;31
2023/08/23 22:41:56;;;;;;;6.18;3.55;;;;;;;24.28;61.40;99365.41;7375953;39;22152;31
2023/08/23 22:47:29;;;;;;;6.22;3.22;;;;;;;24.36;60.62;99361.37;7333844;39;20255;31
2023/08/23 22:58:09;;;;;;;3.85;2.90;;;;;;;24.05;60.61;99360.87;7335244;39;20264;31
2023/08/23 23:08:46;;;;;;;3.90;3.03;;;;;;;23.73;63.26;99338.59;7313333;39;20454;31
2023/08/23 23:19:07;;;;;;;5.70;2.75;;;;;;;23.47;63.55;99338.37;7344119;39;20454;31
2023/08/23 23:29:48;;;;;;;4.40;3.13;;;;;;;23.08;64.05;99331.78;7374734;39;21251;31
2023/08/23 23:40:28;;;;;;;4.18;3.22;;;;;;;23.19;62.13;99303.41;7318894;39;20822;31
2023/08/23 23:46:02;;;;;;;4.60;3.00;;;;;;;23.18;61.77;99294.31;7274649;40;21150;31
2023/08/23 23:51:38;;;;;;;4.75;2.95;;;;;;;23.33;62.86;99283.59;7233163;39;20383;31
2023/08/23 23:57:13;;;;;;;5.03;2.90;;;;;;;23.13;63.45;99287.88;7281361;39;20271;31
